Time;durP1;ratioP1;P1;durP2;ratioP2;P2;SDS_P1;SDS_P2;PMS_P1;PMS_P2;Temp;Humidity;BMP_temperature;BMP_pressure;BME280_temperature;BME280_humidity;BME280_pressure;Samples;Min_cycle;Max_cycle;Signal;HPM_P1;HPM_P2
2023/04/08 00:00:00;;;;;;;10.13;7.50;;;10.20;99.90;;;;;;5051452;28;20397;-70
2023/04/08 00:02:26;;;;;;;8.10;6.83;;;10.20;99.90;;;;;;5052020;28;20249;-70
2023/04/08 00:04:51;;;;;;;13.80;7.27;;;10.20;99.90;;;;;;5052013;28;20513;-70
2023/04/08 00:07:17;;;;;;;9.60;6.73;;;10.20;99.90;;;;;;5051904;28;20171;-70
2023/04/08 00:09:42;;;;;;;13.60;7.70;;;10.20;99.90;;;;;;5051666;28;20656;-70
2023/04/08 00:12:08;;;;;;;9.13;6.70;;;10.30;99.90;;;;;;5051856;28;20233;-70
2023/04/08 00:14:34;;;;;;;11.00;8.30;;;10.30;99.90;;;;;;5051535;28;20209;-70
2023/04/08 00:17:00;;;;;;;9.80;7.33;;;10.30;99.90;;;;;;5051605;28;20164;-70
2023/04/08 00:19:25;;;;;;;8.83;6.07;;;10.30;99.90;;;;;;5051696;28;20163;-70
2023/04/08 00:21:51;;;;;;;14.73;7.30;;;10.30;99.90;;;;;;5051519;28;20402;-70
2023/04/08 00:24:18;;;;;;;9.17;8.23;;;10.30;99.90;;;;;;5051459;28;20656;-70
2023/04/08 00:26:43;;;;;;;11.37;7.20;;;10.40;99.90;;;;;;5051752;28;20437;-70
2023/04/08 00:29:09;;;;;;;20.73;8.87;;;10.30;99.90;;;;;;5051550;28;20482;-70
2023/04/08 00:31:35;;;;;;;14.43;9.00;;;10.30;99.90;;;;;;5051717;28;20167;-70
2023/04/08 00:34:01;;;;;;;9.70;6.83;;;10.40;99.90;;;;;;5050367;28;20457;-70
2023/04/08 00:36:26;;;;;;;13.83;8.20;;;10.30;99.90;;;;;;5051759;28;20166;-70
2023/04/08 00:38:52;;;;;;;18.50;9.33;;;10.30;99.90;;;;;;5051467;28;20177;-70
2023/04/08 00:41:17;;;;;;;11.63;7.80;;;10.40;99.90;;;;;;5050343;28;20668;-70
2023/04/08 00:43:43;;;;;;;13.10;6.43;;;10.40;99.90;;;;;;5051504;28;20187;-70
2023/04/08 00:46:09;;;;;;;8.80;6.00;;;10.40;99.90;;;;;;5051693;28;20171;-70
2023/04/08 00:48:35;;;;;;;11.53;7.43;;;10.40;99.90;;;;;;5050981;28;20174;-70
2023/04/08 00:51:01;;;;;;;12.30;7.53;;;10.40;99.90;;;;;;5051670;28;20928;-70
2023/04/08 00:53:26;;;;;;;16.40;7.67;;;10.40;99.90;;;;;;5051531;28;20215;-70
2023/04/08 00:55:52;;;;;;;11.53;6.50;;;10.40;99.90;;;;;;5051618;28;20462;-70
2023/04/08 00:58:17;;;;;;;12.43;7.30;;;10.40;99.90;;;;;;5050143;28;20177;-70
2023/04/08 01:00:54;;;;;;;11.30;7.30;;;10.40;99.90;;;;;;5051206;28;20243;-70
2023/04/08 01:03:54;;;;;;;11.87;7.00;;;10.40;99.90;;;;;;5050361;28;20155;-70
2023/04/08 01:06:35;;;;;;;15.10;8.23;;;10.40;99.90;;;;;;5051319;28;20401;-70
2023/04/08 01:09:04;;;;;;;13.23;6.47;;;10.40;99.90;;;;;;5051221;28;20492;-70
2023/04/08 01:11:33;;;;;;;11.83;7.30;;;10.40;99.90;;;;;;5051318;28;20401;-70
2023/04/08 01:14:05;;;;;;;15.00;7.70;;;10.40;99.90;;;;;;5051111;28;20496;-70
2023/04/08 01:16:31;;;;;;;15.87;7.77;;;10.30;99.90;;;;;;5051422;28;20402;-70
2023/04/08 01:18:57;;;;;;;12.07;8.43;;;10.30;99.90;;;;;;5051061;28;20500;-70
2023/04/08 01:21:23;;;;;;;12.37;8.47;;;10.30;99.90;;;;;;5048844;28;20977;-70
2023/04/08 01:23:57;;;;;;;16.43;8.97;;;10.30;99.90;;;;;;5054808;28;20197;-70
2023/04/08 01:26:24;;;;;;;15.87;8.50;;;10.30;99.90;;;;;;5053633;28;20413;-70
2023/04/08 01:28:53;;;;;;;14.40;8.53;;;10.30;99.90;;;;;;5054494;28;20492;-70
2023/04/08 01:31:21;;;;;;;18.77;9.67;;;10.30;99.90;;;;;;5054914;28;20483;-70
2023/04/08 01:33:48;;;;;;;16.30;9.47;;;10.30;99.90;;;;;;5054697;28;20455;-71
2023/04/08 01:36:14;;;;;;;14.67;10.13;;;10.30;99.90;;;;;;5054877;28;20439;-70
2023/04/08 01:38:40;;;;;;;17.03;10.10;;;10.30;99.90;;;;;;5054142;28;20807;-70
2023/04/08 01:41:09;;;;;;;17.07;9.43;;;10.40;99.90;;;;;;5054632;28;20394;-70
2023/04/08 01:43:35;;;;;;;17.87;10.57;;;10.40;99.90;;;;;;5054571;28;20425;-70
2023/04/08 01:46:01;;;;;;;18.17;11.00;;;10.40;99.90;;;;;;5054633;28;20933;-70
2023/04/08 01:48:28;;;;;;;14.40;9.50;;;10.30;99.90;;;;;;5054232;28;20398;-70
2023/04/08 01:50:55;;;;;;;15.20;10.07;;;10.30;99.90;;;;;;5054541;28;20209;-70
2023/04/08 01:53:21;;;;;;;15.80;10.03;;;10.30;99.90;;;;;;5054356;28;20913;-70
2023/04/08 01:56:06;;;;;;;15.10;9.87;;;10.30;99.90;;;;;;5054331;28;20398;-70
2023/04/08 01:58:38;;;;;;;16.00;10.10;;;10.30;99.90;;;;;;5054111;28;20878;-70
2023/04/08 02:01:09;;;;;;;17.93;10.40;;;10.20;99.90;;;;;;5054399;28;20398;-70
2023/04/08 02:03:35;;;;;;;14.10;9.40;;;10.20;99.90;;;;;;5054298;28;20772;-70
2023/04/08 02:06:01;;;;;;;15.80;10.57;;;10.20;99.90;;;;;;5053938;28;20424;-70
2023/04/08 02:08:26;;;;;;;17.20;10.10;;;10.20;99.90;;;;;;5053564;28;21083;-70
2023/04/08 02:10:52;;;;;;;12.87;9.57;;;10.20;99.90;;;;;;5054216;28;20171;-70
2023/04/08 02:13:17;;;;;;;15.97;9.40;;;10.10;99.90;;;;;;5053856;28;20183;-70
2023/04/08 02:15:59;;;;;;;17.20;9.20;;;10.10;99.90;;;;;;5053819;28;20256;-70
2023/04/08 02:18:28;;;;;;;18.60;11.40;;;10.10;99.90;;;;;;5053832;28;20685;-70
2023/04/08 02:21:06;;;;;;;14.37;10.77;;;10.00;99.90;;;;;;5053973;28;20455;-70
2023/04/08 02:23:33;;;;;;;15.07;8.93;;;10.00;99.90;;;;;;5053861;28;21022;-70
2023/04/08 02:26:00;;;;;;;16.87;10.40;;;9.90;99.90;;;;;;5052384;28;20440;-71
2023/04/08 02:28:27;;;;;;;15.83;10.77;;;9.90;99.90;;;;;;5053553;28;20405;-71
2023/04/08 02:30:54;;;;;;;21.63;11.30;;;9.90;99.90;;;;;;5053748;28;20412;-70
2023/04/08 02:33:22;;;;;;;19.57;10.17;;;9.90;99.90;;;;;;5053420;28;20797;-70
2023/04/08 02:35:49;;;;;;;16.30;10.97;;;9.90;99.90;;;;;;5053595;28;20413;-70
2023/04/08 02:38:15;;;;;;;17.13;10.80;;;9.90;99.90;;;;;;5053398;28;20386;-70
2023/04/08 02:40:41;;;;;;;18.60;11.63;;;9.90;99.90;;;;;;5053615;28;20390;-71
2023/04/08 02:43:07;;;;;;;16.00;9.33;;;9.90;99.90;;;;;;5052353;28;20758;-70
2023/04/08 02:45:43;;;;;;;16.57;11.40;;;9.90;99.90;;;;;;5053487;28;20295;-70
2023/04/08 02:48:09;;;;;;;16.83;10.43;;;9.90;99.90;;;;;;5053308;28;20632;-70
2023/04/08 02:50:35;;;;;;;15.70;9.70;;;9.90;99.90;;;;;;5053347;28;20404;-71
2023/04/08 02:53:00;;;;;;;14.97;10.90;;;9.90;99.90;;;;;;5053430;28;20398;-71
2023/04/08 02:55:26;;;;;;;12.53;9.70;;;9.90;99.90;;;;;;5053048;28;20234;-69
2023/04/08 02:57:51;;;;;;;14.40;9.93;;;10.00;99.90;;;;;;5053289;28;20170;-71
2023/04/08 03:00:17;;;;;;;17.13;10.37;;;9.90;99.90;;;;;;5052910;28;20166;-71
2023/04/08 03:02:43;;;;;;;22.83;11.17;;;10.00;99.90;;;;;;5052994;28;20176;-70
2023/04/08 03:05:09;;;;;;;18.47;10.70;;;10.00;99.90;;;;;;5052975;28;20190;-72
2023/04/08 03:07:35;;;;;;;18.07;11.17;;;10.00;99.90;;;;;;5051437;28;20629;-70
2023/04/08 03:10:01;;;;;;;17.60;12.07;;;10.00;99.90;;;;;;5051812;28;20417;-71
2023/04/08 03:12:26;;;;;;;15.90;10.30;;;10.00;99.90;;;;;;5052706;28;20892;-70
2023/04/08 03:14:53;;;;;;;19.73;11.63;;;9.90;99.90;;;;;;5052858;28;20453;-70
2023/04/08 03:17:18;;;;;;;16.60;10.73;;;10.00;99.90;;;;;;5052610;28;20525;-70
2023/04/08 03:19:44;;;;;;;24.67;12.27;;;9.90;99.90;;;;;;5051628;28;20405;-70
2023/04/08 03:22:09;;;;;;;16.27;10.97;;;10.00;99.90;;;;;;5052796;28;20581;-70
2023/04/08 03:24:36;;;;;;;22.57;12.30;;;10.00;99.90;;;;;;5052631;28;20565;-70
2023/04/08 03:27:02;;;;;;;23.10;12.27;;;9.90;99.90;;;;;;5052386;28;20632;-70
2023/04/08 03:29:27;;;;;;;22.77;14.23;;;9.90;99.90;;;;;;5052737;28;20504;-70
2023/04/08 03:31:53;;;;;;;17.43;11.60;;;10.00;99.90;;;;;;5052586;28;21033;-70
2023/04/08 03:34:19;;;;;;;22.67;13.00;;;10.00;99.90;;;;;;5052579;28;20559;-71
2023/04/08 03:36:44;;;;;;;19.43;10.77;;;10.00;99.90;;;;;;5052491;28;20184;-70
2023/04/08 03:39:10;;;;;;;18.40;12.80;;;10.00;99.90;;;;;;5052173;28;20186;-70
2023/04/08 03:41:35;;;;;;;23.30;12.33;;;10.00;99.90;;;;;;5052476;28;20163;-72
2023/04/08 03:44:01;;;;;;;17.97;12.27;;;10.00;99.90;;;;;;5052134;28;20195;-70
2023/04/08 03:46:26;;;;;;;19.23;11.87;;;10.00;99.90;;;;;;5052044;28;20163;-70
2023/04/08 03:48:52;;;;;;;15.57;10.70;;;10.00;99.90;;;;;;5052068;28;20535;-70
2023/04/08 03:51:17;;;;;;;18.67;12.23;;;10.00;99.90;;;;;;5052429;28;20175;-70
2023/04/08 03:53:43;;;;;;;21.30;12.13;;;10.00;99.90;;;;;;5050647;28;20212;-71
2023/04/08 03:56:09;;;;;;;20.30;13.00;;;10.00;99.90;;;;;;5052161;28;20175;-70
2023/04/08 03:58:34;;;;;;;21.00;11.63;;;10.00;99.90;;;;;;5051851;28;20273;-71
2023/04/08 04:01:00;;;;;;;21.67;11.50;;;10.00;99.90;;;;;;5052176;28;20167;-70
2023/04/08 04:03:26;;;;;;;17.87;11.73;;;10.00;99.90;;;;;;5052041;28;20191;-71
2023/04/08 04:05:51;;;;;;;22.17;12.33;;;10.10;99.90;;;;;;5052182;28;20163;-70
2023/04/08 04:08:17;;;;;;;17.43;10.20;;;10.10;99.90;;;;;;5051511;28;20819;-71
2023/04/08 04:10:43;;;;;;;19.33;11.13;;;10.10;99.90;;;;;;5051884;28;20542;-71
2023/04/08 04:13:08;;;;;;;18.60;12.67;;;10.10;99.90;;;;;;5051824;28;20571;-72
2023/04/08 04:15:38;;;;;;;20.27;11.67;;;10.10;99.90;;;;;;5051942;28;20348;-70
2023/04/08 04:18:05;;;;;;;19.00;13.13;;;10.10;99.90;;;;;;5051537;28;20198;-70
2023/04/08 04:20:31;;;;;;;22.83;11.43;;;10.10;99.90;;;;;;5051952;28;20397;-70
2023/04/08 04:22:56;;;;;;;16.20;10.93;;;10.10;99.90;;;;;;5050386;28;20420;-72
2023/04/08 04:25:22;;;;;;;18.40;11.70;;;10.10;99.90;;;;;;5051894;28;20218;-71
2023/04/08 04:27:48;;;;;;;23.27;11.83;;;10.20;99.90;;;;;;5051513;28;20179;-71
2023/04/08 04:30:18;;;;;;;20.80;12.23;;;10.20;99.90;;;;;;5051795;28;20233;-72
2023/04/08 04:32:44;;;;;;;19.23;11.80;;;10.20;99.90;;;;;;5051874;28;20273;-72
2023/04/08 04:35:10;;;;;;;20.60;13.03;;;10.20;99.90;;;;;;5051606;28;20908;-71
2023/04/08 04:37:36;;;;;;;18.20;12.33;;;10.20;99.90;;;;;;5050172;28;20417;-70
2023/04/08 04:40:02;;;;;;;15.97;11.27;;;10.20;99.90;;;;;;5051683;28;20430;-71
2023/04/08 04:42:28;;;;;;;18.87;11.70;;;10.20;99.90;;;;;;5051720;28;20305;-70
2023/04/08 04:44:53;;;;;;;16.80;10.93;;;10.10;99.90;;;;;;5051645;28;20479;-70
2023/04/08 04:47:19;;;;;;;18.73;12.17;;;10.10;99.90;;;;;;5051484;28;20274;-70
2023/04/08 04:49:45;;;;;;;19.33;13.33;;;10.10;99.90;;;;;;5051867;28;20191;-70
2023/04/08 04:52:10;;;;;;;24.27;13.03;;;10.20;99.90;;;;;;5051575;28;20532;-70
2023/04/08 04:54:36;;;;;;;14.47;11.13;;;10.20;99.90;;;;;;5050279;28;20457;-70
2023/04/08 04:57:02;;;;;;;17.60;12.80;;;10.10;99.90;;;;;;5053916;28;20255;-70
2023/04/08 04:59:27;;;;;;;18.70;12.67;;;10.10;99.90;;;;;;5055917;28;20182;-69
2023/04/08 05:01:53;;;;;;;20.13;11.93;;;10.20;99.90;;;;;;5055552;28;20208;-71
2023/04/08 05:04:18;;;;;;;21.83;12.57;;;10.10;99.90;;;;;;5055403;28;20209;-70
2023/04/08 05:06:44;;;;;;;21.37;13.20;;;10.10;99.90;;;;;;5055321;28;20170;-71
2023/04/08 05:09:09;;;;;;;23.83;11.70;;;10.10;99.90;;;;;;5055194;28;20201;-70
2023/04/08 05:11:35;;;;;;;17.80;12.20;;;10.10;99.90;;;;;;5055400;28;20194;-69
2023/04/08 05:14:00;;;;;;;23.67;12.50;;;10.10;99.90;;;;;;5055094;28;20202;-71
2023/04/08 05:16:26;;;;;;;19.90;13.43;;;10.10;99.90;;;;;;5055265;28;20234;-71
2023/04/08 05:18:51;;;;;;;27.67;13.93;;;10.10;99.90;;;;;;5054980;28;20167;-70
2023/04/08 05:21:17;;;;;;;19.20;13.27;;;10.10;99.90;;;;;;5054770;28;20167;-70
2023/04/08 05:23:42;;;;;;;22.07;14.20;;;10.10;99.90;;;;;;5055016;28;20190;-70
2023/04/08 05:26:08;;;;;;;28.63;15.60;;;10.20;99.90;;;;;;5055141;28;20167;-71
2023/04/08 05:28:34;;;;;;;21.87;12.50;;;10.20;99.90;;;;;;5054951;28;20170;-70
2023/04/08 05:31:00;;;;;;;20.93;13.70;;;10.20;99.90;;;;;;5054958;28;20317;-71
2023/04/08 05:33:26;;;;;;;23.70;13.83;;;10.10;99.90;;;;;;5054912;28;20974;-71
2023/04/08 05:35:52;;;;;;;33.13;15.07;;;10.10;99.90;;;;;;5054709;28;20194;-70
2023/04/08 05:38:17;;;;;;;18.57;12.70;;;10.00;99.90;;;;;;5054545;28;20221;-71
2023/04/08 05:40:43;;;;;;;22.07;12.87;;;9.90;99.90;;;;;;5054856;28;20444;-71
2023/04/08 05:43:08;;;;;;;26.90;13.17;;;9.90;99.90;;;;;;5054792;28;20172;-70
2023/04/08 05:45:34;;;;;;;23.87;12.57;;;9.80;99.90;;;;;;5054776;28;20171;-70
2023/04/08 05:48:00;;;;;;;22.37;14.90;;;9.90;99.90;;;;;;5053102;28;20541;-70
2023/04/08 05:50:25;;;;;;;20.80;14.20;;;9.90;99.90;;;;;;5054565;28;20178;-71
2023/04/08 05:52:51;;;;;;;31.23;15.00;;;9.90;99.90;;;;;;5054507;28;20167;-70
2023/04/08 05:55:16;;;;;;;23.47;13.60;;;10.00;99.90;;;;;;5054439;28;20249;-71
2023/04/08 05:57:42;;;;;;;25.40;15.07;;;10.10;99.90;;;;;;5054131;28;20189;-70
2023/04/08 06:00:09;;;;;;;29.90;16.10;;;10.10;99.90;;;;;;5054429;28;20163;-71
2023/04/08 06:02:35;;;;;;;33.63;17.13;;;10.20;99.90;;;;;;5054344;28;20166;-71
2023/04/08 06:05:02;;;;;;;22.23;13.67;;;10.30;99.90;;;;;;5052937;28;20463;-71
2023/04/08 06:07:28;;;;;;;22.27;14.23;;;10.40;99.90;;;;;;5053321;28;20485;-71
2023/04/08 06:09:54;;;;;;;24.53;15.50;;;10.50;99.90;;;;;;5053089;28;20496;-70
2023/04/08 06:12:19;;;;;;;25.20;14.37;;;10.60;99.90;;;;;;5054103;28;20171;-70
2023/04/08 06:14:45;;;;;;;33.60;17.23;;;10.70;99.90;;;;;;5054039;28;20480;-72
2023/04/08 06:17:10;;;;;;;25.37;13.67;;;10.80;99.90;;;;;;5053853;28;20531;-71
2023/04/08 06:19:36;;;;;;;26.53;15.43;;;10.90;99.90;;;;;;5053990;28;20159;-70
2023/04/08 06:22:01;;;;;;;27.83;16.33;;;10.90;99.90;;;;;;5052804;28;20167;-72
2023/04/08 06:24:28;;;;;;;26.30;14.53;;;11.00;99.90;;;;;;5053918;28;20190;-70
2023/04/08 06:26:54;;;;;;;28.63;16.33;;;11.10;99.90;;;;;;5053628;28;20163;-71
2023/04/08 06:29:23;;;;;;;29.83;15.37;;;11.10;99.90;;;;;;5053915;28;20816;-71
2023/04/08 06:31:49;;;;;;;24.60;15.20;;;11.10;99.90;;;;;;5053830;28;20402;-70
2023/04/08 06:34:15;;;;;;;31.20;16.97;;;11.20;99.90;;;;;;5053491;28;20456;-69
2023/04/08 06:36:40;;;;;;;28.93;16.87;;;11.30;99.90;;;;;;5053792;28;20483;-71
2023/04/08 06:39:06;;;;;;;27.47;17.37;;;11.30;99.90;;;;;;5052260;28;20680;-71
2023/04/08 06:41:31;;;;;;;32.13;16.97;;;11.40;99.90;;;;;;5053733;28;20719;-71
2023/04/08 06:43:57;;;;;;;29.17;16.87;;;11.50;99.90;;;;;;5053531;28;20229;-71
2023/04/08 06:46:23;;;;;;;28.83;17.30;;;11.60;99.90;;;;;;5052287;28;20266;-71
2023/04/08 06:48:48;;;;;;;31.67;17.03;;;11.80;99.90;;;;;;5053134;28;20599;-71
2023/04/08 06:51:14;;;;;;;33.30;19.27;;;12.00;99.90;;;;;;5052165;28;20441;-70
2023/04/08 06:53:40;;;;;;;31.00;17.17;;;12.20;99.90;;;;;;5053301;28;20261;-70
2023/04/08 06:56:05;;;;;;;24.47;16.77;;;12.40;99.90;;;;;;5053334;28;20213;-70
2023/04/08 06:58:31;;;;;;;30.47;16.23;;;12.50;99.90;;;;;;5052944;28;20167;-71
2023/04/08 07:00:58;;;;;;;32.80;17.33;;;12.70;99.90;;;;;;5052025;28;20624;-72
2023/04/08 07:03:24;;;;;;;28.33;18.53;;;12.70;99.90;;;;;;5053095;28;20636;-71
2023/04/08 07:05:49;;;;;;;30.17;16.33;;;12.80;99.90;;;;;;5053158;28;20496;-72
2023/04/08 07:08:15;;;;;;;24.00;16.00;;;12.90;99.90;;;;;;5052831;28;20206;-71
2023/04/08 07:10:40;;;;;;;29.83;18.23;;;13.10;99.90;;;;;;5053214;28;20198;-72
2023/04/08 07:13:06;;;;;;;28.00;17.80;;;13.30;99.90;;;;;;5052905;28;20238;-72
2023/04/08 07:15:31;;;;;;;29.77;16.47;;;13.40;99.90;;;;;;5052875;28;20281;-71
2023/04/08 07:17:58;;;;;;;29.20;17.80;;;13.50;99.90;;;;;;5052659;28;20166;-71
2023/04/08 07:20:24;;;;;;;29.30;17.63;;;13.50;99.90;;;;;;5051891;28;20163;-71
2023/04/08 07:22:50;;;;;;;26.47;17.70;;;13.70;99.90;;;;;;5052858;28;20930;-71
2023/04/08 07:25:16;;;;;;;28.43;17.23;;;13.80;99.90;;;;;;5052655;28;20580;-71
2023/04/08 07:27:41;;;;;;;28.23;16.77;;;13.90;99.90;;;;;;5052490;28;20194;-72
2023/04/08 07:30:07;;;;;;;27.70;17.70;;;14.00;99.90;;;;;;5052743;28;20405;-70
2023/04/08 07:32:33;;;;;;;31.30;19.97;;;14.10;99.90;;;;;;5052674;28;20584;-71
2023/04/08 07:34:59;;;;;;;26.80;17.00;;;14.10;99.90;;;;;;5052478;28;20523;-70
2023/04/08 07:37:26;;;;;;;25.30;15.97;;;14.20;99.90;;;;;;5052358;28;20163;-70
2023/04/08 07:39:51;;;;;;;33.10;19.00;;;14.40;99.90;;;;;;5052591;28;20976;-71
2023/04/08 07:42:17;;;;;;;29.40;18.03;;;14.40;99.90;;;;;;5052512;28;20405;-72
2023/04/08 07:44:44;;;;;;;32.80;19.63;;;14.50;99.90;;;;;;5052463;28;20182;-71
2023/04/08 07:47:10;;;;;;;25.03;16.00;;;14.80;99.90;;;;;;5052083;28;20173;-71
2023/04/08 07:49:36;;;;;;;24.87;16.73;;;15.00;99.90;;;;;;5052353;28;20405;-72
2023/04/08 07:52:02;;;;;;;29.70;18.57;;;15.30;99.90;;;;;;5052308;28;20492;-71
2023/04/08 07:54:29;;;;;;;27.40;16.40;;;15.80;99.90;;;;;;5052142;28;20195;-70
2023/04/08 07:56:55;;;;;;;27.43;17.33;;;16.30;99.90;;;;;;5052012;28;20298;-71
2023/04/08 07:59:21;;;;;;;23.03;16.20;;;16.80;99.90;;;;;;5052240;28;20405;-70
2023/04/08 08:01:47;;;;;;;25.17;17.07;;;17.30;99.90;;;;;;5052236;28;20427;-71
2023/04/08 08:04:12;;;;;;;26.23;16.67;;;17.80;99.90;;;;;;5052021;28;20547;-71
2023/04/08 08:06:38;;;;;;;19.63;14.47;;;19.00;99.90;;;;;;5050828;28;20206;-71
2023/04/08 08:09:04;;;;;;;19.23;15.20;;;20.10;99.90;;;;;;5051891;28;20639;-71
2023/04/08 08:11:30;;;;;;;21.27;15.00;;;21.90;99.90;;;;;;5052085;28;20174;-72
2023/04/08 08:13:55;;;;;;;18.67;15.27;;;24.20;99.90;;;;;;5051799;28;20564;-72
2023/04/08 08:16:21;;;;;;;21.00;16.80;;;26.00;92.60;;;;;;5051631;28;20409;-73
2023/04/08 08:18:47;;;;;;;19.30;16.00;;;26.20;78.00;;;;;;5051446;28;20163;-72
2023/04/08 08:21:12;;;;;;;16.60;13.70;;;26.40;71.00;;;;;;5052006;28;20254;-72
2023/04/08 08:23:38;;;;;;;20.10;14.67;;;25.80;66.00;;;;;;5051812;28;20191;-72
2023/04/08 08:26:06;;;;;;;20.97;16.40;;;25.10;62.90;;;;;;5051876;28;20167;-71
2023/04/08 08:28:32;;;;;;;17.37;15.57;;;24.30;64.80;;;;;;5051725;28;20628;-72
2023/04/08 08:30:58;;;;;;;17.63;14.27;;;23.70;66.20;;;;;;5053101;28;20912;-72
2023/04/08 08:33:24;;;;;;;23.00;16.10;;;23.20;67.10;;;;;;5054727;28;20433;-71
2023/04/08 08:35:50;;;;;;;20.70;16.10;;;22.90;69.30;;;;;;5056000;28;20940;-71
2023/04/08 08:38:17;;;;;;;20.37;15.53;;;22.50;69.20;;;;;;5055694;28;20406;-72
2023/04/08 08:40:44;;;;;;;18.93;15.40;;;22.00;72.00;;;;;;5056017;28;20227;-71
2023/04/08 08:43:10;;;;;;;20.83;15.83;;;21.80;75.30;;;;;;5055834;28;20416;-73
2023/04/08 08:45:42;;;;;;;24.03;15.70;;;21.70;75.70;;;;;;5055840;28;20410;-71
2023/04/08 08:48:08;;;;;;;20.70;15.33;;;21.40;75.40;;;;;;5055558;28;20818;-71
2023/04/08 08:50:34;;;;;;;18.43;15.53;;;21.00;75.30;;;;;;5054525;28;20451;-71
2023/04/08 08:53:00;;;;;;;21.20;15.10;;;20.50;76.50;;;;;;5055776;28;20174;-71
2023/04/08 08:55:31;;;;;;;23.80;15.07;;;20.00;79.80;;;;;;5055484;28;20452;-70
2023/04/08 08:57:56;;;;;;;19.87;14.47;;;19.60;83.50;;;;;;5055319;28;20405;-71
2023/04/08 09:00:32;;;;;;;23.43;15.73;;;19.30;89.50;;;;;;5055539;28;20805;-72
2023/04/08 09:03:18;;;;;;;23.63;15.67;;;19.00;93.30;;;;;;5054207;28;20190;-72
2023/04/08 09:05:52;;;;;;;28.07;18.73;;;19.00;97.40;;;;;;5055603;28;20929;-71
2023/04/08 09:08:33;;;;;;;35.37;21.80;;;19.00;97.50;;;;;;5055047;28;20406;-71
2023/04/08 09:11:11;;;;;;;31.00;20.20;;;19.00;97.30;;;;;;5055409;28;20765;-72
2023/04/08 09:13:37;;;;;;;29.30;19.90;;;18.90;98.50;;;;;;5055259;28;20873;-70
2023/04/08 09:16:04;;;;;;;27.10;18.97;;;18.80;99.80;;;;;;5049016;28;20538;-72
2023/04/08 09:18:31;;;;;;;34.10;21.57;;;18.90;99.90;;;;;;5047309;28;20420;-69
2023/04/08 09:21:04;;;;;;;34.30;21.30;;;19.20;99.90;;;;;;5053538;28;20439;-70
2023/04/08 09:23:47;;;;;;;27.37;17.50;;;19.40;99.90;;;;;;5054637;28;20425;-71
2023/04/08 09:26:14;;;;;;;27.60;19.67;;;19.50;99.00;;;;;;5054841;28;20500;-71
2023/04/08 09:28:41;;;;;;;26.30;17.97;;;19.50;97.20;;;;;;5054110;28;20454;-71
2023/04/08 09:31:25;;;;;;;28.90;18.77;;;19.50;95.90;;;;;;5055287;28;20457;-72
2023/04/08 09:34:09;;;;;;;36.17;21.87;;;19.30;95.50;;;;;;5054819;28;20518;-71
2023/04/08 09:36:34;;;;;;;34.30;21.67;;;19.00;95.20;;;;;;5054593;28;20480;-71
2023/04/08 09:39:00;;;;;;;37.37;20.10;;;18.60;96.40;;;;;;5054528;28;20815;-70
2023/04/08 09:41:27;;;;;;;31.77;19.30;;;18.30;98.50;;;;;;5054618;28;20645;-70
2023/04/08 09:43:54;;;;;;;35.80;22.70;;;18.10;99.90;;;;;;5053545;28;20206;-70
2023/04/08 09:46:26;;;;;;;33.77;22.87;;;17.80;99.90;;;;;;5054703;28;20455;-71
2023/04/08 09:49:16;;;;;;;30.83;21.20;;;17.70;99.90;;;;;;5054425;28;20401;-70
2023/04/08 09:51:48;;;;;;;36.07;22.33;;;17.50;99.90;;;;;;5054371;28;20412;-71
2023/04/08 09:54:18;;;;;;;31.63;20.13;;;17.60;99.90;;;;;;5054210;28;20449;-70
2023/04/08 09:56:53;;;;;;;33.77;21.67;;;17.60;99.90;;;;;;5054145;28;20446;-71
2023/04/08 09:59:22;;;;;;;29.30;20.23;;;17.70;99.90;;;;;;5054438;28;20393;-70
2023/04/08 10:01:53;;;;;;;32.03;21.97;;;17.80;99.90;;;;;;5054421;28;20404;-70
2023/04/08 10:04:21;;;;;;;30.60;18.80;;;17.80;99.90;;;;;;5053957;28;20425;-71
2023/04/08 10:06:56;;;;;;;34.60;23.20;;;17.80;99.90;;;;;;5054284;28;20417;-71
2023/04/08 10:09:22;;;;;;;29.67;21.07;;;17.80;99.90;;;;;;5054198;28;20816;-70
2023/04/08 10:11:48;;;;;;;37.00;22.73;;;17.80;99.90;;;;;;5054055;28;20413;-70
2023/04/08 10:14:13;;;;;;;30.47;21.63;;;17.80;99.90;;;;;;5053345;28;21027;-71
2023/04/08 10:16:39;;;;;;;33.77;22.70;;;17.90;99.90;;;;;;5053735;28;20412;-71
2023/04/08 10:19:40;;;;;;;29.20;20.10;;;18.20;99.90;;;;;;5053740;28;20171;-70
2023/04/08 10:22:47;;;;;;;31.30;21.10;;;19.20;99.90;;;;;;5054038;28;20162;-71
2023/04/08 10:25:16;;;;;;;28.73;19.50;;;20.00;99.90;;;;;;5050078;28;20492;-71
2023/04/08 10:27:43;;;;;;;29.80;21.40;;;20.20;99.90;;;;;;5053636;28;20404;-71
2023/04/08 10:30:26;;;;;;;29.57;20.70;;;20.30;99.90;;;;;;5053679;28;20406;-71
2023/04/08 10:32:56;;;;;;;26.47;19.00;;;20.40;97.20;;;;;;5053885;28;20768;-71
2023/04/08 10:35:33;;;;;;;30.07;19.80;;;20.50;95.50;;;;;;5053251;28;20459;-71
2023/04/08 10:37:59;;;;;;;19.50;15.40;;;20.70;94.30;;;;;;5053570;28;20546;-71
2023/04/08 10:40:25;;;;;;;24.67;16.67;;;21.00;94.20;;;;;;5053630;28;20430;-71
2023/04/08 10:42:55;;;;;;;20.50;16.97;;;21.40;92.50;;;;;;5053091;28;20490;-71
2023/04/08 10:45:21;;;;;;;20.83;17.93;;;21.80;91.10;;;;;;5053383;28;20266;-71
2023/04/08 10:47:46;;;;;;;23.07;17.73;;;22.10;89.00;;;;;;5051887;28;20508;-70
2023/04/08 10:50:17;;;;;;;19.57;17.47;;;22.20;87.80;;;;;;5053371;28;20174;-70
2023/04/08 10:52:53;;;;;;;20.47;16.10;;;22.20;84.30;;;;;;5053261;28;20148;-71
2023/04/08 10:55:23;;;;;;;15.50;13.23;;;21.90;81.30;;;;;;5052862;28;20457;-72
2023/04/08 10:57:54;;;;;;;16.10;14.40;;;21.60;81.20;;;;;;5052884;28;21001;-71
2023/04/08 11:00:38;;;;;;;16.30;13.10;;;21.20;79.00;;;;;;5053418;28;20941;-70
2023/04/08 11:03:06;;;;;;;13.90;11.03;;;20.90;80.20;;;;;;5037708;28;20414;-70
2023/04/08 11:05:33;;;;;;;11.93;10.73;;;20.70;83.20;;;;;;5033436;28;20489;-71
2023/04/08 11:07:59;;;;;;;13.17;11.77;;;20.50;84.00;;;;;;5032718;28;20394;-71
2023/04/08 11:10:25;;;;;;;14.23;11.27;;;20.50;86.70;;;;;;5033080;28;20473;-71
2023/04/08 11:12:53;;;;;;;12.87;11.33;;;20.40;87.10;;;;;;5032926;28;20415;-71
2023/04/08 11:15:19;;;;;;;14.30;9.60;;;20.30;85.50;;;;;;5032877;28;20512;-71
2023/04/08 11:17:46;;;;;;;12.47;10.90;;;20.20;87.60;;;;;;5032633;28;20398;-71
2023/04/08 11:20:13;;;;;;;15.10;11.80;;;20.00;85.40;;;;;;5032929;28;20903;-70
2023/04/08 11:22:39;;;;;;;12.60;11.03;;;19.80;87.00;;;;;;5032837;28;20406;-71
2023/04/08 11:25:07;;;;;;;13.70;11.63;;;19.60;86.50;;;;;;5032800;28;20422;-71
2023/04/08 11:27:34;;;;;;;10.80;9.40;;;19.40;89.50;;;;;;5032436;28;20482;-71
2023/04/08 11:30:01;;;;;;;14.63;13.03;;;19.30;91.10;;;;;;5032526;28;20409;-71
2023/04/08 11:32:27;;;;;;;15.83;11.40;;;19.20;89.40;;;;;;5032737;28;20502;-70
2023/04/08 11:34:53;;;;;;;14.23;12.70;;;19.10;90.90;;;;;;5032593;28;20822;-71
2023/04/08 11:37:19;;;;;;;11.73;10.53;;;18.90;91.60;;;;;;5032346;28;20398;-71
2023/04/08 11:39:45;;;;;;;14.97;13.47;;;18.80;92.30;;;;;;5032550;28;20407;-71
2023/04/08 11:42:27;;;;;;;16.77;14.97;;;18.60;92.80;;;;;;5032559;28;20163;-71
2023/04/08 11:44:52;;;;;;;17.63;15.73;;;18.50;94.60;;;;;;5031222;28;20426;-71
2023/04/08 11:47:18;;;;;;;22.07;16.60;;;18.60;94.50;;;;;;5032197;28;20919;-70
2023/04/08 11:49:44;;;;;;;16.00;14.00;;;18.60;94.20;;;;;;5032477;28;20172;-71
2023/04/08 11:52:10;;;;;;;16.63;14.90;;;18.70;96.40;;;;;;5032618;28;20163;-71
2023/04/08 11:54:40;;;;;;;17.40;14.03;;;18.80;96.30;;;;;;5031026;28;20464;-71
2023/04/08 11:57:06;;;;;;;19.77;17.00;;;18.80;95.90;;;;;;5032053;28;20559;-71
2023/04/08 11:59:32;;;;;;;18.90;15.00;;;18.80;94.90;;;;;;5032473;28;20402;-71
2023/04/08 12:01:57;;;;;;;20.03;16.20;;;18.80;94.70;;;;;;5032336;28;20168;-71
2023/04/08 12:04:23;;;;;;;18.50;16.37;;;18.80;94.00;;;;;;5032197;28;20668;-70
2023/04/08 12:06:49;;;;;;;17.63;14.47;;;18.60;93.60;;;;;;5031569;28;20167;-71
2023/04/08 12:09:14;;;;;;;21.53;16.67;;;18.40;94.70;;;;;;5032100;28;20685;-70
2023/04/08 12:11:40;;;;;;;17.17;15.30;;;18.20;94.60;;;;;;5032132;28;20695;-70
2023/04/08 12:14:06;;;;;;;17.17;15.33;;;18.00;94.00;;;;;;5032000;28;20253;-70
2023/04/08 12:16:32;;;;;;;20.20;16.70;;;17.80;94.20;;;;;;5032135;28;20410;-71
2023/04/08 12:18:57;;;;;;;21.60;15.90;;;17.70;95.40;;;;;;5030604;28;20198;-71
2023/04/08 12:21:23;;;;;;;20.60;16.27;;;17.50;96.80;;;;;;5032089;28;20188;-71
2023/04/08 12:23:48;;;;;;;20.80;15.90;;;17.40;96.70;;;;;;5032000;28;20266;-70
2023/04/08 12:26:14;;;;;;;20.43;15.67;;;17.20;97.90;;;;;;5031921;28;20655;-71
2023/04/08 12:28:39;;;;;;;22.50;15.27;;;17.10;98.50;;;;;;5031683;28;20168;-71
2023/04/08 12:31:05;;;;;;;23.97;15.80;;;17.00;99.70;;;;;;5032057;28;20198;-70